createdAt,value
2023-03-19T00:02:18.013Z,0.85
2023-03-19T00:04:51.611Z,0.80
2023-03-19T00:07:21.863Z,0.50
2023-03-19T00:09:52.309Z,0.50
2023-03-19T00:12:22.698Z,0.82
2023-03-19T00:14:53.890Z,0.80
2023-03-19T00:17:24.589Z,0.50
2023-03-19T00:19:55.276Z,0.30
2023-03-19T00:22:26.235Z,0.35
2023-03-19T00:24:56.865Z,0.95
2023-03-19T00:27:28.656Z,0.30
2023-03-19T00:30:01.283Z,0.40
2023-03-19T00:32:32.165Z,0.40
2023-03-19T00:35:02.460Z,0.32
2023-03-19T00:37:32.678Z,0.38
2023-03-19T00:40:03.094Z,0.32
2023-03-19T00:42:34.170Z,0.90
2023-03-19T00:45:04.351Z,0.55
2023-03-19T00:47:34.578Z,0.40
2023-03-19T00:50:06.489Z,0.40
2023-03-19T00:52:36.948Z,0.30
2023-03-19T00:55:07.522Z,0.50
2023-03-19T00:57:37.855Z,0.40
2023-03-19T01:00:09.185Z,0.47
2023-03-19T01:02:40.507Z,0.43
2023-03-19T01:05:11.951Z,0.77
2023-03-19T01:07:42.766Z,0.77
2023-03-19T01:10:14.763Z,1.17
2023-03-19T01:12:45.327Z,0.50
2023-03-19T01:15:15.893Z,0.50
2023-03-19T01:17:46.507Z,0.30
2023-03-19T01:20:20.354Z,0.40
2023-03-19T01:22:50.675Z,0.50
2023-03-19T01:25:21.063Z,0.60
2023-03-19T01:27:51.791Z,0.50
2023-03-19T01:30:22.793Z,0.50
2023-03-19T01:32:54.241Z,0.43
2023-03-19T01:35:27.489Z,1.23
2023-03-19T01:37:58.259Z,0.30
2023-03-19T01:40:29.046Z,0.85
2023-03-19T01:43:16.371Z,0.52
2023-03-19T01:45:51.226Z,0.50
2023-03-19T01:48:31.698Z,0.70
2023-03-19T01:51:04.020Z,0.50
2023-03-19T01:53:37.871Z,0.50
2023-03-19T01:56:37.102Z,0.70
2023-03-19T01:59:14.005Z,0.50
2023-03-19T02:02:12.666Z,0.77
2023-03-19T02:04:45.882Z,0.40
2023-03-19T02:07:18.335Z,0.30
2023-03-19T02:09:49.244Z,0.60
2023-03-19T02:12:20.562Z,0.50
2023-03-19T02:14:51.964Z,0.70
2023-03-19T02:17:25.223Z,0.55
2023-03-19T02:20:15.142Z,0.50
2023-03-19T02:23:07.236Z,0.47
2023-03-19T02:25:49.866Z,0.50
2023-03-19T02:28:24.117Z,0.55
2023-03-19T02:30:55.251Z,0.60
2023-03-19T02:33:25.571Z,0.70
2023-03-19T02:35:57.667Z,0.65
2023-03-19T02:38:33.735Z,0.47
2023-03-19T02:41:12.444Z,0.50
2023-03-19T02:43:44.282Z,0.35
2023-03-19T02:46:17.872Z,0.60
2023-03-19T02:48:48.713Z,0.57
2023-03-19T02:51:19.570Z,0.93
2023-03-19T02:53:50.669Z,0.50
2023-03-19T02:56:21.340Z,0.35
2023-03-19T02:58:51.944Z,0.43
2023-03-19T03:01:22.614Z,0.50
2023-03-19T03:03:53.233Z,0.32
2023-03-19T03:06:23.979Z,0.70
2023-03-19T03:08:55.785Z,0.50
2023-03-19T03:11:26.245Z,0.40
2023-03-19T03:13:56.497Z,0.40
2023-03-19T03:16:27.805Z,0.50
2023-03-19T03:18:59.644Z,0.55
2023-03-19T03:21:33.154Z,1.05
2023-03-19T03:24:05.132Z,0.80
2023-03-19T03:26:38.137Z,1.38
2023-03-19T03:29:09.660Z,0.40
2023-03-19T03:31:40.423Z,0.95
2023-03-19T03:34:12.060Z,0.40
2023-03-19T03:36:42.549Z,0.45
2023-03-19T03:39:13.534Z,0.50
2023-03-19T03:41:44.553Z,0.63
2023-03-19T03:44:16.948Z,0.35
2023-03-19T03:46:59.955Z,0.50
2023-03-19T03:49:30.302Z,0.68
2023-03-19T03:52:00.587Z,0.25
2023-03-19T03:54:30.963Z,0.40
2023-03-19T03:57:03.364Z,0.50
2023-03-19T03:59:34.167Z,0.40
2023-03-19T04:02:04.989Z,1.00
2023-03-19T04:04:36.919Z,0.98
2023-03-19T04:07:08.809Z,0.40
2023-03-19T04:09:39.780Z,0.30
2023-03-19T04:12:28.729Z,0.20
2023-03-19T04:14:59.714Z,0.30
2023-03-19T04:17:31.336Z,0.68
2023-03-19T04:20:01.670Z,0.30
2023-03-19T04:22:31.970Z,0.63
2023-03-19T04:25:02.240Z,0.20
2023-03-19T04:27:34.729Z,0.20
2023-03-19T04:30:06.764Z,0.30
2023-03-19T04:32:37.639Z,0.40
2023-03-19T04:35:09.980Z,0.30
2023-03-19T04:37:40.696Z,0.40
2023-03-19T04:40:12.497Z,0.30
2023-03-19T04:42:43.556Z,0.57
2023-03-19T04:45:15.301Z,0.30
2023-03-19T04:47:45.494Z,0.32
2023-03-19T04:50:16.435Z,0.50
2023-03-19T04:52:46.839Z,0.20
2023-03-19T04:55:17.306Z,0.35
2023-03-19T04:57:47.631Z,0.50
2023-03-19T05:00:20.320Z,0.30
2023-03-19T05:02:50.584Z,0.40
2023-03-19T05:05:21.378Z,0.30
2023-03-19T05:07:52.167Z,0.40
2023-03-19T05:10:23.253Z,0.30
2023-03-19T05:12:53.632Z,0.40
2023-03-19T05:15:24.232Z,0.20
2023-03-19T05:17:55.813Z,0.30
2023-03-19T05:20:26.380Z,0.40
2023-03-19T05:22:56.673Z,0.25
2023-03-19T05:25:27.682Z,0.30
2023-03-19T05:27:58.739Z,0.22
2023-03-19T05:30:29.951Z,0.22
2023-03-19T05:33:03.152Z,0.32
2023-03-19T05:35:33.866Z,0.20
2023-03-19T05:38:04.412Z,0.30
2023-03-19T05:40:36.721Z,0.40
2023-03-19T05:43:07.385Z,0.30
2023-03-19T05:45:37.897Z,0.40
2023-03-19T05:48:09.825Z,0.20
2023-03-19T05:50:40.575Z,0.30
2023-03-19T05:53:10.815Z,0.40
2023-03-19T05:55:41.099Z,0.30
2023-03-19T05:58:11.391Z,0.20
2023-03-19T06:00:41.739Z,0.32
2023-03-19T06:03:12.028Z,0.65
2023-03-19T06:05:43.423Z,0.28
2023-03-19T06:08:14.448Z,0.30
2023-03-19T06:10:45.337Z,0.30
2023-03-19T06:13:16.383Z,0.63
2023-03-19T06:15:47.042Z,0.73
2023-03-19T06:18:18.469Z,0.40
2023-03-19T06:20:50.288Z,0.30
2023-03-19T06:23:21.304Z,0.45
2023-03-19T06:25:53.734Z,0.20
2023-03-19T06:28:26.268Z,0.38
2023-03-19T06:31:00.892Z,0.52
2023-03-19T06:33:34.519Z,0.30
2023-03-19T06:36:05.870Z,0.20
2023-03-19T06:38:37.754Z,0.35
2023-03-19T06:41:08.080Z,1.20
2023-03-19T06:43:38.932Z,0.60
2023-03-19T06:46:11.820Z,0.30
2023-03-19T06:48:43.127Z,0.35
2023-03-19T06:51:14.384Z,0.30
2023-03-19T06:53:45.071Z,0.35
2023-03-19T06:56:15.723Z,0.40
2023-03-19T06:58:46.013Z,0.22
2023-03-19T07:01:16.378Z,0.40
2023-03-19T07:03:46.981Z,0.20
2023-03-19T07:06:17.717Z,1.10
2023-03-19T07:08:48.152Z,0.32
2023-03-19T07:11:18.644Z,0.68
2023-03-19T07:13:48.915Z,0.40
2023-03-19T07:16:20.564Z,0.45
2023-03-19T07:18:51.230Z,0.30
2023-03-19T07:21:21.989Z,0.60
2023-03-19T07:23:54.798Z,0.40
2023-03-19T07:26:25.066Z,0.40
2023-03-19T07:28:55.785Z,0.93
2023-03-19T07:31:26.051Z,0.35
2023-03-19T07:33:56.780Z,0.50
2023-03-19T07:36:27.494Z,0.30
2023-03-19T07:38:59.072Z,0.38
2023-03-19T07:41:29.432Z,0.32
2023-03-19T07:43:59.671Z,0.50
2023-03-19T07:46:30.051Z,0.63
2023-03-19T07:49:00.359Z,0.30
2023-03-19T07:51:30.558Z,0.70
2023-03-19T07:54:00.788Z,0.40
2023-03-19T07:56:31.456Z,0.40
2023-03-19T07:59:02.417Z,0.75
2023-03-19T08:01:33.152Z,0.30
2023-03-19T08:04:03.802Z,0.43
2023-03-19T08:06:34.439Z,0.40
2023-03-19T08:09:05.131Z,0.73
2023-03-19T08:11:36.114Z,0.60
2023-03-19T08:14:06.854Z,0.50
2023-03-19T08:16:37.140Z,1.13
2023-03-19T08:19:07.469Z,0.60
2023-03-19T08:21:40.205Z,0.43
2023-03-19T08:24:10.578Z,0.35
2023-03-19T08:26:41.768Z,0.60
2023-03-19T08:29:13.272Z,1.02
2023-03-19T08:31:44.129Z,1.20
2023-03-19T08:34:14.802Z,0.93
2023-03-19T08:36:46.639Z,0.75
2023-03-19T08:39:19.280Z,0.80
2023-03-19T08:41:51.350Z,1.55
2023-03-19T08:44:22.022Z,1.52
2023-03-19T08:46:52.764Z,1.40
2023-03-19T08:49:23.874Z,1.48
2023-03-19T08:51:54.258Z,1.83
2023-03-19T08:54:24.582Z,1.40
2023-03-19T08:56:54.837Z,0.88
2023-03-19T08:59:25.278Z,1.85
2023-03-19T09:01:56.155Z,1.30
2023-03-19T09:04:26.623Z,1.83
2023-03-19T09:06:58.115Z,2.10
2023-03-19T09:09:28.426Z,1.45
2023-03-19T09:11:58.944Z,1.92
2023-03-19T09:14:29.550Z,1.98
2023-03-19T09:17:00.268Z,0.98
2023-03-19T09:19:30.910Z,1.15
2023-03-19T09:22:02.801Z,0.90
2023-03-19T09:24:33.687Z,0.93
2023-03-19T09:27:04.531Z,1.42
2023-03-19T09:29:34.889Z,0.98
2023-03-19T09:32:05.429Z,1.33
2023-03-19T09:34:36.132Z,1.10
2023-03-19T09:37:06.517Z,1.20
2023-03-19T09:39:37.288Z,1.52
2023-03-19T09:42:55.760Z,1.30
2023-03-19T09:45:26.873Z,0.93
2023-03-19T09:48:03.286Z,0.82
2023-03-19T09:53:40.050Z,1.13
2023-03-19T09:56:16.378Z,1.02
2023-03-19T10:01:35.757Z,1.58
2023-03-19T10:04:15.522Z,2.08
2023-03-19T10:06:45.857Z,1.83
2023-03-19T10:09:38.138Z,1.63
2023-03-19T10:12:15.355Z,1.73
2023-03-19T10:15:02.410Z,1.50
2023-03-19T10:18:06.304Z,1.85
2023-03-19T10:20:46.922Z,1.50
2023-03-19T10:23:47.717Z,2.08
2023-03-19T10:26:22.597Z,1.85
2023-03-19T10:29:05.514Z,1.42
2023-03-19T10:31:50.269Z,1.70
2023-03-19T10:34:43.669Z,1.85
2023-03-19T10:37:21.852Z,1.92
2023-03-19T10:39:57.701Z,1.83
2023-03-19T10:43:08.962Z,1.50
2023-03-19T10:45:40.902Z,1.42
2023-03-19T10:48:19.334Z,1.20
2023-03-19T10:50:55.205Z,1.30
2023-03-19T10:53:37.566Z,1.17
2023-03-19T10:56:25.826Z,2.05
2023-03-19T10:59:05.868Z,1.60
2023-03-19T11:01:42.318Z,1.77
2023-03-19T11:06:57.385Z,2.25
2023-03-19T11:09:39.322Z,1.70
2023-03-19T11:12:38.191Z,1.60
2023-03-19T11:15:28.443Z,1.80
2023-03-19T11:18:08.336Z,1.42
2023-03-19T11:20:41.367Z,1.80
2023-03-19T11:23:19.025Z,1.40
2023-03-19T11:25:57.680Z,1.45
2023-03-19T11:28:34.953Z,1.73
2023-03-19T11:31:22.568Z,2.08
2023-03-19T11:34:14.747Z,1.58
2023-03-19T11:37:00.621Z,1.77
2023-03-19T11:39:51.372Z,1.70
2023-03-19T11:42:58.226Z,1.50
2023-03-19T11:45:41.584Z,1.30
2023-03-19T11:48:36.544Z,1.83
2023-03-19T11:52:03.439Z,1.25
2023-03-19T11:54:53.424Z,1.20
2023-03-19T11:57:58.650Z,1.08
2023-03-19T12:00:34.191Z,1.27
2023-03-19T12:03:08.494Z,2.03
2023-03-19T12:06:06.232Z,1.40
2023-03-19T12:08:54.401Z,1.20
2023-03-19T12:12:09.537Z,1.52
2023-03-19T12:15:11.124Z,1.45
2023-03-19T12:18:05.681Z,1.13
2023-03-19T12:21:02.702Z,1.45
2023-03-19T12:24:09.399Z,1.50
2023-03-19T12:27:05.980Z,1.45
2023-03-19T12:30:20.305Z,1.33
2023-03-19T12:33:22.491Z,1.90
2023-03-19T12:35:57.099Z,1.38
2023-03-19T12:38:53.404Z,1.83
2023-03-19T12:41:28.272Z,1.35
2023-03-19T12:44:01.219Z,1.98
2023-03-19T12:46:48.793Z,1.67
2023-03-19T12:49:24.532Z,1.42
2023-03-19T12:52:38.399Z,0.93
2023-03-19T12:55:27.137Z,1.48
2023-03-19T12:58:14.780Z,1.20
2023-03-19T13:00:54.141Z,0.95
2023-03-19T13:04:10.017Z,1.17
2023-03-19T13:06:56.526Z,1.15
2023-03-19T13:09:45.336Z,0.80
2023-03-19T13:12:29.583Z,2.03
2023-03-19T13:15:10.990Z,1.13
2023-03-19T13:18:18.008Z,1.00
2023-03-19T13:21:06.761Z,1.35
2023-03-19T13:23:40.746Z,1.05
2023-03-19T13:26:14.343Z,1.42
2023-03-19T13:29:03.787Z,1.00
2023-03-19T13:31:38.547Z,1.15
2023-03-19T13:34:35.763Z,1.02
2023-03-19T13:37:23.803Z,1.00
2023-03-19T13:39:58.113Z,1.10
2023-03-19T13:42:46.240Z,1.13
2023-03-19T13:45:39.874Z,0.88
2023-03-19T13:48:33.014Z,0.82
2023-03-19T13:51:04.997Z,1.00
2023-03-19T13:53:42.784Z,0.70
2023-03-19T13:56:29.201Z,1.20
2023-03-19T13:59:18.321Z,1.10
2023-03-19T14:01:48.984Z,0.90
2023-03-19T14:04:39.932Z,1.42
2023-03-19T14:07:23.808Z,1.27
2023-03-19T14:10:09.121Z,0.82
2023-03-19T14:12:49.771Z,0.90
2023-03-19T14:15:26.385Z,0.77
2023-03-19T14:20:40.797Z,1.20
2023-03-19T14:23:40.757Z,1.30
2023-03-19T14:26:31.546Z,0.88
2023-03-19T14:29:05.747Z,0.90
2023-03-19T14:32:08.590Z,0.70
2023-03-19T14:35:03.440Z,1.10
2023-03-19T14:38:03.904Z,0.93
2023-03-19T14:40:49.405Z,1.15
2023-03-19T14:44:02.652Z,1.88
2023-03-19T14:47:05.241Z,1.00
2023-03-19T14:49:53.488Z,0.73
2023-03-19T14:52:51.378Z,0.98
2023-03-19T14:55:57.686Z,0.90
2023-03-19T14:59:12.090Z,0.80
2023-03-19T15:02:05.434Z,0.75
2023-03-19T15:04:36.095Z,0.75
2023-03-19T15:07:24.610Z,0.68
2023-03-19T15:10:18.988Z,0.90
2023-03-19T15:13:25.641Z,1.00
2023-03-19T15:16:32.121Z,0.80
2023-03-19T15:19:02.904Z,0.90
2023-03-19T15:21:34.537Z,1.05
2023-03-19T15:24:06.609Z,0.82
2023-03-19T15:26:55.255Z,0.70
2023-03-19T15:29:38.497Z,0.75
2023-03-19T15:32:16.119Z,0.57
2023-03-19T15:34:58.990Z,0.80
2023-03-19T15:37:33.334Z,0.60
2023-03-19T15:40:06.227Z,0.98
2023-03-19T15:42:37.421Z,0.60
2023-03-19T15:45:13.112Z,0.68
2023-03-19T15:47:50.924Z,0.60
2023-03-19T15:50:25.762Z,0.90
2023-03-19T15:53:10.008Z,0.93
2023-03-19T15:55:41.668Z,1.00
2023-03-19T15:58:18.456Z,0.80
2023-03-19T16:00:50.274Z,0.68
2023-03-19T16:03:24.613Z,0.80
2023-03-19T16:06:06.343Z,0.90
2023-03-19T16:08:38.152Z,0.85
2023-03-19T16:11:39.250Z,0.93
2023-03-19T16:14:34.530Z,0.90
2023-03-19T16:17:16.774Z,1.17
2023-03-19T16:20:04.611Z,0.80
2023-03-19T16:22:36.571Z,0.82
2023-03-19T16:25:13.302Z,0.80
2023-03-19T16:27:45.053Z,0.63
2023-03-19T16:30:33.489Z,0.70
2023-03-19T16:33:06.681Z,1.00
2023-03-19T16:35:40.003Z,1.20
2023-03-19T16:38:30.290Z,0.52
2023-03-19T16:41:26.539Z,1.30
2023-03-19T16:43:57.031Z,0.70
2023-03-19T16:46:28.712Z,0.80
2023-03-19T16:48:58.965Z,0.85
2023-03-19T16:51:29.272Z,0.82
2023-03-19T16:53:59.962Z,0.80
2023-03-19T16:56:30.268Z,1.05
2023-03-19T16:59:04.887Z,0.80
2023-03-19T17:01:35.216Z,0.60
2023-03-19T17:04:08.067Z,0.90
2023-03-19T17:06:38.418Z,1.00
2023-03-19T17:09:08.782Z,1.15
2023-03-19T17:11:43.322Z,1.02
2023-03-19T17:14:22.108Z,0.80
2023-03-19T17:16:56.108Z,1.58
2023-03-19T17:19:53.158Z,1.00
2023-03-19T17:22:24.948Z,0.88
2023-03-19T17:24:55.766Z,0.90
2023-03-19T17:27:26.248Z,1.02
2023-03-19T17:29:56.547Z,0.85
2023-03-19T17:32:27.304Z,1.02
2023-03-19T17:34:58.644Z,1.23
2023-03-19T17:37:32.462Z,0.90
2023-03-19T17:40:03.434Z,1.13
2023-03-19T17:42:35.601Z,1.10
2023-03-19T17:45:06.859Z,1.23
2023-03-19T17:47:37.903Z,1.33
2023-03-19T17:50:10.006Z,1.20
2023-03-19T17:52:40.735Z,0.88
2023-03-19T17:55:31.638Z,0.63
2023-03-19T17:58:02.702Z,1.10
2023-03-19T18:00:34.245Z,1.08
2023-03-19T18:03:05.099Z,0.93
2023-03-19T18:05:35.813Z,0.93
2023-03-19T18:08:06.484Z,0.82
2023-03-19T18:10:37.132Z,1.10
2023-03-19T18:13:09.076Z,1.08
2023-03-19T18:15:41.450Z,0.70
2023-03-19T18:18:19.582Z,1.35
2023-03-19T18:20:51.223Z,1.65
2023-03-19T18:23:22.216Z,1.13
2023-03-19T18:25:53.235Z,1.10
2023-03-19T18:28:23.872Z,1.05
2023-03-19T18:30:54.155Z,0.98
2023-03-19T18:33:30.802Z,1.30
2023-03-19T18:36:02.134Z,1.48
2023-03-19T18:38:34.040Z,1.02
2023-03-19T18:41:04.829Z,0.98
2023-03-19T18:43:35.470Z,1.00
2023-03-19T18:46:06.197Z,1.10
2023-03-19T18:48:37.051Z,1.25
2023-03-19T18:51:07.516Z,1.17
2023-03-19T18:53:38.938Z,1.10
2023-03-19T18:56:26.433Z,0.77
2023-03-19T18:58:58.561Z,1.13
2023-03-19T19:01:31.585Z,0.90
2023-03-19T19:04:02.688Z,1.20
2023-03-19T19:06:47.193Z,1.15
2023-03-19T19:09:18.295Z,0.80
2023-03-19T19:11:50.648Z,1.08
2023-03-19T19:14:26.859Z,1.52
2023-03-19T19:16:59.892Z,0.70
2023-03-19T19:19:31.117Z,1.00
2023-03-19T19:22:02.722Z,1.00
2023-03-19T19:24:33.558Z,1.35
2023-03-19T19:27:03.918Z,1.17
2023-03-19T19:29:34.681Z,1.00
2023-03-19T19:32:06.066Z,1.20
2023-03-19T19:34:36.332Z,0.95
2023-03-19T19:37:06.531Z,0.68
2023-03-19T19:39:37.174Z,1.20
2023-03-19T19:42:08.029Z,0.95
2023-03-19T19:44:38.660Z,1.05
2023-03-19T19:47:22.189Z,0.90
2023-03-19T19:49:53.219Z,0.80
2023-03-19T19:52:24.277Z,0.60
2023-03-19T19:54:55.996Z,0.60
2023-03-19T19:57:27.177Z,1.40
2023-03-19T19:59:59.784Z,0.70
2023-03-19T20:02:32.746Z,0.60
2023-03-19T20:05:03.119Z,0.52
2023-03-19T20:07:33.800Z,0.50
2023-03-19T20:10:05.504Z,0.55
2023-03-19T20:12:36.582Z,0.80
2023-03-19T20:15:17.516Z,0.93
2023-03-19T20:17:48.936Z,0.60
2023-03-19T20:20:23.065Z,0.50
2023-03-19T20:22:54.319Z,0.50
2023-03-19T20:25:27.684Z,0.40
2023-03-19T20:28:04.012Z,0.70
2023-03-19T20:30:39.366Z,0.60
2023-03-19T20:33:10.147Z,0.73
2023-03-19T20:35:41.237Z,0.40
2023-03-19T20:38:13.945Z,0.68
2023-03-19T20:40:55.909Z,0.60
2023-03-19T20:43:39.526Z,0.80
2023-03-19T20:46:13.664Z,1.05
2023-03-19T20:48:43.949Z,0.40
2023-03-19T20:51:23.497Z,0.40
2023-03-19T20:53:56.105Z,0.50
2023-03-19T20:56:26.585Z,0.38
2023-03-19T20:58:57.510Z,0.50
2023-03-19T21:01:28.752Z,0.30
2023-03-19T21:03:59.309Z,0.40
2023-03-19T21:06:36.787Z,0.50
2023-03-19T21:09:16.991Z,0.47
2023-03-19T21:11:48.658Z,0.57
2023-03-19T21:14:19.010Z,0.40
2023-03-19T21:16:49.427Z,0.40
2023-03-19T21:19:20.197Z,0.43
2023-03-19T21:21:50.857Z,0.50
2023-03-19T21:24:26.506Z,0.50
2023-03-19T21:26:58.256Z,0.50
2023-03-19T21:29:35.515Z,0.35
2023-03-19T21:32:14.237Z,0.30
2023-03-19T21:34:44.908Z,0.50
2023-03-19T21:37:16.195Z,0.25
2023-03-19T21:39:46.696Z,0.30
2023-03-19T21:42:24.550Z,0.38
2023-03-19T21:45:01.597Z,0.40
2023-03-19T21:47:31.972Z,1.20
2023-03-19T21:50:03.504Z,0.60
2023-03-19T21:52:45.703Z,0.80
2023-03-19T21:55:26.296Z,1.10
2023-03-19T21:58:03.592Z,0.80
2023-03-19T22:00:34.598Z,0.90
2023-03-19T22:03:06.355Z,1.50
2023-03-19T22:05:38.180Z,1.85
2023-03-19T22:08:09.573Z,1.20
2023-03-19T22:10:40.432Z,1.15
2023-03-19T22:13:21.286Z,0.80
2023-03-19T22:15:54.812Z,0.30
2023-03-19T22:18:26.124Z,0.20
2023-03-19T22:20:57.610Z,0.32
2023-03-19T22:23:28.289Z,0.30
2023-03-19T22:25:58.633Z,0.40
2023-03-19T22:28:37.139Z,0.20
2023-03-19T22:31:07.965Z,0.20
2023-03-19T22:33:38.496Z,0.35
2023-03-19T22:36:10.156Z,0.20
2023-03-19T22:38:40.708Z,0.20
2023-03-19T22:41:24.189Z,0.17
2023-03-19T22:43:55.524Z,0.20
2023-03-19T22:46:26.996Z,0.10
2023-03-19T22:48:58.349Z,0.10
2023-03-19T22:51:29.929Z,0.17
2023-03-19T22:54:00.206Z,0.10
2023-03-19T22:56:31.216Z,0.10
2023-03-19T22:59:02.879Z,0.45
2023-03-19T23:01:35.455Z,0.35
2023-03-19T23:04:28.461Z,0.20
2023-03-19T23:07:00.713Z,1.67
2023-03-19T23:09:34.573Z,2.60
2023-03-19T23:12:06.369Z,3.95
2023-03-19T23:14:38.945Z,3.15
2023-03-19T23:17:21.231Z,3.92
2023-03-19T23:19:52.129Z,3.45
2023-03-19T23:22:22.977Z,3.15
2023-03-19T23:24:53.256Z,3.00
2023-03-19T23:27:28.783Z,2.95
2023-03-19T23:29:59.336Z,2.17
2023-03-19T23:32:29.636Z,2.35
2023-03-19T23:35:01.864Z,2.40
2023-03-19T23:37:32.496Z,4.07
2023-03-19T23:40:03.588Z,2.90
2023-03-19T23:42:36.639Z,3.30
2023-03-19T23:45:08.332Z,3.35
2023-03-19T23:47:38.715Z,3.30
2023-03-19T23:50:15.742Z,2.88
2023-03-19T23:52:46.417Z,2.67
2023-03-19T23:55:17.172Z,2.50
2023-03-19T23:57:48.254Z,2.63
